sensor_id;sensor_type;location;lat;lon;timestamp;temperature;humidity
49855;DHT22;35752;52.164;21.244;2023-04-06T00:01:07;1.80;99.90
49855;DHT22;35752;52.164;21.244;2023-04-06T00:03:34;1.80;99.90
49855;DHT22;35752;52.164;21.244;2023-04-06T00:05:59;1.70;99.90
49855;DHT22;35752;52.164;21.244;2023-04-06T00:08:26;1.80;99.90
49855;DHT22;35752;52.164;21.244;2023-04-06T00:10:51;1.80;99.90
49855;DHT22;35752;52.164;21.244;2023-04-06T00:13:17;1.80;99.90
49855;DHT22;35752;52.164;21.244;2023-04-06T00:15:43;1.80;99.90
49855;DHT22;35752;52.164;21.244;2023-04-06T00:18:09;1.80;99.90
49855;DHT22;35752;52.164;21.244;2023-04-06T00:20:35;1.70;99.90
49855;DHT22;35752;52.164;21.244;2023-04-06T00:23:00;1.70;99.90
49855;DHT22;35752;52.164;21.244;2023-04-06T00:25:26;1.80;99.90
49855;DHT22;35752;52.164;21.244;2023-04-06T00:27:51;1.80;99.90
49855;DHT22;35752;52.164;21.244;2023-04-06T00:30:17;1.70;99.90
49855;DHT22;35752;52.164;21.244;2023-04-06T00:32:43;1.70;99.90
49855;DHT22;35752;52.164;21.244;2023-04-06T00:35:09;1.80;99.90
49855;DHT22;35752;52.164;21.244;2023-04-06T00:37:34;1.70;99.90
49855;DHT22;35752;52.164;21.244;2023-04-06T00:40:00;1.80;99.90
49855;DHT22;35752;52.164;21.244;2023-04-06T00:42:26;1.80;99.90
49855;DHT22;35752;52.164;21.244;2023-04-06T00:44:56;1.70;99.90
49855;DHT22;35752;52.164;21.244;2023-04-06T00:47:23;1.80;99.90
49855;DHT22;35752;52.164;21.244;2023-04-06T00:49:50;1.70;99.90
49855;DHT22;35752;52.164;21.244;2023-04-06T00:52:16;1.70;99.90
49855;DHT22;35752;52.164;21.244;2023-04-06T00:54:42;1.70;99.90
49855;DHT22;35752;52.164;21.244;2023-04-06T00:57:07;1.70;99.90
49855;DHT22;35752;52.164;21.244;2023-04-06T00:59:33;1.70;99.90
49855;DHT22;35752;52.164;21.244;2023-04-06T01:01:59;1.70;99.90
49855;DHT22;35752;52.164;21.244;2023-04-06T01:04:24;1.70;99.90
49855;DHT22;35752;52.164;21.244;2023-04-06T01:06:50;1.70;99.90
49855;DHT22;35752;52.164;21.244;2023-04-06T01:09:19;1.70;99.90
49855;DHT22;35752;52.164;21.244;2023-04-06T01:11:44;1.70;99.90
49855;DHT22;35752;52.164;21.244;2023-04-06T01:14:10;1.70;99.90
49855;DHT22;35752;52.164;21.244;2023-04-06T01:16:36;1.70;99.90
49855;DHT22;35752;52.164;21.244;2023-04-06T01:19:12;1.70;99.90
49855;DHT22;35752;52.164;21.244;2023-04-06T01:21:38;1.70;99.90
49855;DHT22;35752;52.164;21.244;2023-04-06T01:24:04;1.70;99.90
49855;DHT22;35752;52.164;21.244;2023-04-06T01:26:31;1.80;99.90
49855;DHT22;35752;52.164;21.244;2023-04-06T01:28:57;1.70;99.90
49855;DHT22;35752;52.164;21.244;2023-04-06T01:31:23;1.70;99.90
49855;DHT22;35752;52.164;21.244;2023-04-06T01:33:49;1.70;99.90
49855;DHT22;35752;52.164;21.244;2023-04-06T01:36:15;1.70;99.90
49855;DHT22;35752;52.164;21.244;2023-04-06T01:38:40;1.70;99.90
49855;DHT22;35752;52.164;21.244;2023-04-06T01:41:07;1.60;99.90
49855;DHT22;35752;52.164;21.244;2023-04-06T01:43:33;1.60;99.90
49855;DHT22;35752;52.164;21.244;2023-04-06T01:45:58;1.60;99.90
49855;DHT22;35752;52.164;21.244;2023-04-06T01:48:26;1.60;99.90
49855;DHT22;35752;52.164;21.244;2023-04-06T01:50:52;1.60;99.90
49855;DHT22;35752;52.164;21.244;2023-04-06T01:53:18;1.50;99.90
49855;DHT22;35752;52.164;21.244;2023-04-06T01:55:43;1.50;99.90
49855;DHT22;35752;52.164;21.244;2023-04-06T01:58:09;1.50;99.90
49855;DHT22;35752;52.164;21.244;2023-04-06T02:00:35;1.40;99.90
49855;DHT22;35752;52.164;21.244;2023-04-06T02:03:01;1.50;99.90
49855;DHT22;35752;52.164;21.244;2023-04-06T02:05:28;1.40;99.90
49855;DHT22;35752;52.164;21.244;2023-04-06T02:07:54;1.40;99.90
49855;DHT22;35752;52.164;21.244;2023-04-06T02:10:20;1.40;99.90
49855;DHT22;35752;52.164;21.244;2023-04-06T02:12:45;1.30;99.90
49855;DHT22;35752;52.164;21.244;2023-04-06T02:15:11;1.20;99.90
49855;DHT22;35752;52.164;21.244;2023-04-06T02:17:39;1.30;99.90
49855;DHT22;35752;52.164;21.244;2023-04-06T02:20:05;1.20;99.90
49855;DHT22;35752;52.164;21.244;2023-04-06T02:22:31;1.20;99.90
49855;DHT22;35752;52.164;21.244;2023-04-06T02:24:56;1.30;99.90
49855;DHT22;35752;52.164;21.244;2023-04-06T02:27:22;1.20;99.90
49855;DHT22;35752;52.164;21.244;2023-04-06T02:29:48;1.20;99.90
49855;DHT22;35752;52.164;21.244;2023-04-06T02:32:13;1.20;99.90
49855;DHT22;35752;52.164;21.244;2023-04-06T02:34:39;1.10;99.90
49855;DHT22;35752;52.164;21.244;2023-04-06T02:37:04;1.00;99.90
49855;DHT22;35752;52.164;21.244;2023-04-06T02:39:30;1.00;99.90
49855;DHT22;35752;52.164;21.244;2023-04-06T02:41:55;1.00;99.90
49855;DHT22;35752;52.164;21.244;2023-04-06T02:44:22;1.00;99.90
49855;DHT22;35752;52.164;21.244;2023-04-06T02:46:48;1.00;99.90
49855;DHT22;35752;52.164;21.244;2023-04-06T02:49:13;0.90;99.90
49855;DHT22;35752;52.164;21.244;2023-04-06T02:51:39;0.90;99.90
49855;DHT22;35752;52.164;21.244;2023-04-06T02:54:05;0.80;99.90
49855;DHT22;35752;52.164;21.244;2023-04-06T02:56:30;0.80;99.90
49855;DHT22;35752;52.164;21.244;2023-04-06T02:58:56;0.80;99.90
49855;DHT22;35752;52.164;21.244;2023-04-06T03:01:22;0.80;99.90
49855;DHT22;35752;52.164;21.244;2023-04-06T03:03:47;0.80;99.90
49855;DHT22;35752;52.164;21.244;2023-04-06T03:06:13;0.80;99.90
49855;DHT22;35752;52.164;21.244;2023-04-06T03:08:38;0.80;99.90
49855;DHT22;35752;52.164;21.244;2023-04-06T03:11:04;0.80;99.90
49855;DHT22;35752;52.164;21.244;2023-04-06T03:13:30;0.70;99.90
49855;DHT22;35752;52.164;21.244;2023-04-06T03:15:55;0.80;99.90
49855;DHT22;35752;52.164;21.244;2023-04-06T03:18:22;0.70;99.90
49855;DHT22;35752;52.164;21.244;2023-04-06T03:20:48;0.70;99.90
49855;DHT22;35752;52.164;21.244;2023-04-06T03:23:14;0.80;99.90
49855;DHT22;35752;52.164;21.244;2023-04-06T03:25:40;0.80;99.90
49855;DHT22;35752;52.164;21.244;2023-04-06T03:28:06;0.80;99.90
49855;DHT22;35752;52.164;21.244;2023-04-06T03:30:31;0.80;99.90
49855;DHT22;35752;52.164;21.244;2023-04-06T03:32:57;0.80;99.90
49855;DHT22;35752;52.164;21.244;2023-04-06T03:35:22;0.80;99.90
49855;DHT22;35752;52.164;21.244;2023-04-06T03:37:48;0.80;99.90
49855;DHT22;35752;52.164;21.244;2023-04-06T03:40:14;0.80;99.90
49855;DHT22;35752;52.164;21.244;2023-04-06T03:42:39;0.90;99.90
49855;DHT22;35752;52.164;21.244;2023-04-06T03:45:05;0.90;99.90
49855;DHT22;35752;52.164;21.244;2023-04-06T03:47:31;0.90;99.90
49855;DHT22;35752;52.164;21.244;2023-04-06T03:49:57;0.90;99.90
49855;DHT22;35752;52.164;21.244;2023-04-06T03:52:22;0.90;99.90
49855;DHT22;35752;52.164;21.244;2023-04-06T03:54:51;0.90;99.90
49855;DHT22;35752;52.164;21.244;2023-04-06T03:57:17;0.90;99.90
49855;DHT22;35752;52.164;21.244;2023-04-06T03:59:42;0.90;99.90
49855;DHT22;35752;52.164;21.244;2023-04-06T04:02:08;0.90;99.90
49855;DHT22;35752;52.164;21.244;2023-04-06T04:04:34;0.90;99.90
49855;DHT22;35752;52.164;21.244;2023-04-06T04:06:59;0.90;99.90
49855;DHT22;35752;52.164;21.244;2023-04-06T04:09:25;0.90;99.90
49855;DHT22;35752;52.164;21.244;2023-04-06T04:11:50;0.90;99.90
49855;DHT22;35752;52.164;21.244;2023-04-06T04:14:16;0.90;99.90
49855;DHT22;35752;52.164;21.244;2023-04-06T04:16:42;0.90;99.90
49855;DHT22;35752;52.164;21.244;2023-04-06T04:19:07;0.90;99.90
49855;DHT22;35752;52.164;21.244;2023-04-06T04:21:33;1.00;99.90
49855;DHT22;35752;52.164;21.244;2023-04-06T04:23:59;1.00;99.90
49855;DHT22;35752;52.164;21.244;2023-04-06T04:26:24;0.90;99.90
49855;DHT22;35752;52.164;21.244;2023-04-06T04:28:50;1.00;99.90
49855;DHT22;35752;52.164;21.244;2023-04-06T04:31:16;1.00;99.90
49855;DHT22;35752;52.164;21.244;2023-04-06T04:33:43;1.00;99.90
49855;DHT22;35752;52.164;21.244;2023-04-06T04:36:09;1.00;99.90
49855;DHT22;35752;52.164;21.244;2023-04-06T04:38:35;1.00;99.90
49855;DHT22;35752;52.164;21.244;2023-04-06T04:41:01;1.00;99.90
49855;DHT22;35752;52.164;21.244;2023-04-06T04:43:26;1.00;99.90
49855;DHT22;35752;52.164;21.244;2023-04-06T04:45:52;1.00;99.90
49855;DHT22;35752;52.164;21.244;2023-04-06T04:48:18;1.10;99.90
49855;DHT22;35752;52.164;21.244;2023-04-06T04:50:43;1.10;99.90
49855;DHT22;35752;52.164;21.244;2023-04-06T04:53:09;1.10;99.90
49855;DHT22;35752;52.164;21.244;2023-04-06T04:55:34;1.20;99.90
49855;DHT22;35752;52.164;21.244;2023-04-06T04:58:00;1.20;99.90
49855;DHT22;35752;52.164;21.244;2023-04-06T05:00:26;1.30;99.90
49855;DHT22;35752;52.164;21.244;2023-04-06T05:02:51;1.30;99.90
49855;DHT22;35752;52.164;21.244;2023-04-06T05:05:17;1.30;99.90
49855;DHT22;35752;52.164;21.244;2023-04-06T05:07:42;1.40;99.90
49855;DHT22;35752;52.164;21.244;2023-04-06T05:10:08;1.40;99.90
49855;DHT22;35752;52.164;21.244;2023-04-06T05:12:34;1.50;99.90
49855;DHT22;35752;52.164;21.244;2023-04-06T05:15:00;1.50;99.90
49855;DHT22;35752;52.164;21.244;2023-04-06T05:17:26;1.60;99.90
49855;DHT22;35752;52.164;21.244;2023-04-06T05:19:52;1.70;99.90
49855;DHT22;35752;52.164;21.244;2023-04-06T05:22:17;1.80;99.90
49855;DHT22;35752;52.164;21.244;2023-04-06T05:24:43;1.90;99.90
49855;DHT22;35752;52.164;21.244;2023-04-06T05:27:09;1.90;99.90
49855;DHT22;35752;52.164;21.244;2023-04-06T05:29:35;1.90;99.90
49855;DHT22;35752;52.164;21.244;2023-04-06T05:32:01;2.00;99.90
49855;DHT22;35752;52.164;21.244;2023-04-06T05:34:27;2.00;99.90
49855;DHT22;35752;52.164;21.244;2023-04-06T05:36:52;2.10;99.90
49855;DHT22;35752;52.164;21.244;2023-04-06T05:39:18;2.10;99.90
49855;DHT22;35752;52.164;21.244;2023-04-06T05:41:44;2.10;99.90
49855;DHT22;35752;52.164;21.244;2023-04-06T05:44:09;2.10;99.90
49855;DHT22;35752;52.164;21.244;2023-04-06T05:46:35;2.20;99.90
49855;DHT22;35752;52.164;21.244;2023-04-06T05:49:01;2.20;99.90
49855;DHT22;35752;52.164;21.244;2023-04-06T05:51:26;2.20;99.90
49855;DHT22;35752;52.164;21.244;2023-04-06T05:53:52;2.30;99.90
49855;DHT22;35752;52.164;21.244;2023-04-06T05:56:18;2.30;99.90
49855;DHT22;35752;52.164;21.244;2023-04-06T05:58:44;2.40;99.90
49855;DHT22;35752;52.164;21.244;2023-04-06T06:01:09;2.50;99.90
49855;DHT22;35752;52.164;21.244;2023-04-06T06:03:35;2.50;99.90
49855;DHT22;35752;52.164;21.244;2023-04-06T06:06:02;2.50;99.90
49855;DHT22;35752;52.164;21.244;2023-04-06T06:08:28;2.50;99.90
49855;DHT22;35752;52.164;21.244;2023-04-06T06:10:54;2.60;99.90
49855;DHT22;35752;52.164;21.244;2023-04-06T06:13:20;2.70;99.90
49855;DHT22;35752;52.164;21.244;2023-04-06T06:15:47;2.50;99.90
49855;DHT22;35752;52.164;21.244;2023-04-06T06:18:12;2.50;99.90
49855;DHT22;35752;52.164;21.244;2023-04-06T06:20:38;2.60;99.90
49855;DHT22;35752;52.164;21.244;2023-04-06T06:23:04;2.70;99.90
49855;DHT22;35752;52.164;21.244;2023-04-06T06:25:29;2.60;99.90
49855;DHT22;35752;52.164;21.244;2023-04-06T06:27:56;2.60;99.90
49855;DHT22;35752;52.164;21.244;2023-04-06T06:30:22;2.60;99.90
49855;DHT22;35752;52.164;21.244;2023-04-06T06:32:48;2.60;99.90
49855;DHT22;35752;52.164;21.244;2023-04-06T06:35:14;2.60;99.90
49855;DHT22;35752;52.164;21.244;2023-04-06T06:37:39;2.60;99.90
49855;DHT22;35752;52.164;21.244;2023-04-06T06:40:05;2.70;99.90
49855;DHT22;35752;52.164;21.244;2023-04-06T06:42:31;2.80;99.90
49855;DHT22;35752;52.164;21.244;2023-04-06T06:44:57;2.80;99.90
49855;DHT22;35752;52.164;21.244;2023-04-06T06:47:22;2.90;99.90
49855;DHT22;35752;52.164;21.244;2023-04-06T06:49:48;3.00;99.90
49855;DHT22;35752;52.164;21.244;2023-04-06T06:52:13;3.00;99.90
49855;DHT22;35752;52.164;21.244;2023-04-06T06:54:39;2.90;99.90
49855;DHT22;35752;52.164;21.244;2023-04-06T06:57:05;3.00;99.90
49855;DHT22;35752;52.164;21.244;2023-04-06T06:59:31;3.00;99.90
49855;DHT22;35752;52.164;21.244;2023-04-06T07:01:56;3.10;99.90
49855;DHT22;35752;52.164;21.244;2023-04-06T07:04:22;3.00;99.90
49855;DHT22;35752;52.164;21.244;2023-04-06T07:06:47;3.00;99.90
49855;DHT22;35752;52.164;21.244;2023-04-06T07:09:13;3.00;99.90
49855;DHT22;35752;52.164;21.244;2023-04-06T07:11:39;2.80;99.90
49855;DHT22;35752;52.164;21.244;2023-04-06T07:14:04;2.90;99.90
49855;DHT22;35752;52.164;21.244;2023-04-06T07:16:30;2.90;99.90
49855;DHT22;35752;52.164;21.244;2023-04-06T07:18:56;3.10;99.90
49855;DHT22;35752;52.164;21.244;2023-04-06T07:21:21;3.20;99.90
49855;DHT22;35752;52.164;21.244;2023-04-06T07:23:47;2.90;99.90
49855;DHT22;35752;52.164;21.244;2023-04-06T07:26:13;2.90;99.90
49855;DHT22;35752;52.164;21.244;2023-04-06T07:28:39;3.00;99.90
49855;DHT22;35752;52.164;21.244;2023-04-06T07:31:05;3.10;99.90
49855;DHT22;35752;52.164;21.244;2023-04-06T07:33:30;3.00;99.90
49855;DHT22;35752;52.164;21.244;2023-04-06T07:35:56;3.00;99.90
49855;DHT22;35752;52.164;21.244;2023-04-06T07:38:23;2.90;99.90
49855;DHT22;35752;52.164;21.244;2023-04-06T07:40:49;2.80;99.90
49855;DHT22;35752;52.164;21.244;2023-04-06T07:43:15;2.80;99.90
49855;DHT22;35752;52.164;21.244;2023-04-06T07:45:41;2.80;99.90
49855;DHT22;35752;52.164;21.244;2023-04-06T07:48:07;2.70;99.90
49855;DHT22;35752;52.164;21.244;2023-04-06T07:50:33;2.80;99.90
49855;DHT22;35752;52.164;21.244;2023-04-06T07:52:58;2.80;99.90
49855;DHT22;35752;52.164;21.244;2023-04-06T07:55:25;2.90;99.90
49855;DHT22;35752;52.164;21.244;2023-04-06T07:57:51;2.80;99.90
49855;DHT22;35752;52.164;21.244;2023-04-06T08:00:16;2.80;99.90
49855;DHT22;35752;52.164;21.244;2023-04-06T08:02:42;2.90;99.90
49855;DHT22;35752;52.164;21.244;2023-04-06T08:05:08;3.00;99.90
49855;DHT22;35752;52.164;21.244;2023-04-06T08:07:34;3.20;99.90
49855;DHT22;35752;52.164;21.244;2023-04-06T08:10:01;3.10;99.90
49855;DHT22;35752;52.164;21.244;2023-04-06T08:12:26;3.00;99.90
49855;DHT22;35752;52.164;21.244;2023-04-06T08:14:52;3.00;99.90
49855;DHT22;35752;52.164;21.244;2023-04-06T08:17:17;3.00;99.90
49855;DHT22;35752;52.164;21.244;2023-04-06T08:19:43;3.00;99.90
49855;DHT22;35752;52.164;21.244;2023-04-06T08:22:10;3.00;99.90
49855;DHT22;35752;52.164;21.244;2023-04-06T08:24:35;3.10;99.90
49855;DHT22;35752;52.164;21.244;2023-04-06T08:27:01;3.10;99.90
49855;DHT22;35752;52.164;21.244;2023-04-06T08:29:27;3.10;99.90
49855;DHT22;35752;52.164;21.244;2023-04-06T08:31:52;3.10;99.90
49855;DHT22;35752;52.164;21.244;2023-04-06T08:34:18;3.20;99.90
49855;DHT22;35752;52.164;21.244;2023-04-06T08:36:44;3.20;99.90
49855;DHT22;35752;52.164;21.244;2023-04-06T08:39:11;3.20;99.90
49855;DHT22;35752;52.164;21.244;2023-04-06T08:41:36;3.10;99.90
49855;DHT22;35752;52.164;21.244;2023-04-06T08:44:02;3.10;99.90
49855;DHT22;35752;52.164;21.244;2023-04-06T08:46:29;3.20;99.90
49855;DHT22;35752;52.164;21.244;2023-04-06T08:49:02;3.20;99.90
49855;DHT22;35752;52.164;21.244;2023-04-06T08:51:29;3.00;99.90
49855;DHT22;35752;52.164;21.244;2023-04-06T08:53:59;2.80;99.90
49855;DHT22;35752;52.164;21.244;2023-04-06T08:56:26;2.60;99.90
49855;DHT22;35752;52.164;21.244;2023-04-06T08:58:55;2.60;99.90
49855;DHT22;35752;52.164;21.244;2023-04-06T09:01:24;2.60;99.90
49855;DHT22;35752;52.164;21.244;2023-04-06T09:03:51;2.70;99.90
49855;DHT22;35752;52.164;21.244;2023-04-06T09:06:21;2.80;99.90
49855;DHT22;35752;52.164;21.244;2023-04-06T09:08:46;2.80;99.90
49855;DHT22;35752;52.164;21.244;2023-04-06T09:11:12;2.70;99.90
49855;DHT22;35752;52.164;21.244;2023-04-06T09:13:52;2.70;99.90
49855;DHT22;35752;52.164;21.244;2023-04-06T09:16:19;2.70;99.90
49855;DHT22;35752;52.164;21.244;2023-04-06T09:18:46;2.60;99.90
49855;DHT22;35752;52.164;21.244;2023-04-06T09:21:12;2.60;99.90
49855;DHT22;35752;52.164;21.244;2023-04-06T09:23:38;2.70;1.00
49855;DHT22;35752;52.164;21.244;2023-04-06T09:28:50;2.60;1.00
49855;DHT22;35752;52.164;21.244;2023-04-06T09:31:27;2.50;1.00
49855;DHT22;35752;52.164;21.244;2023-04-06T09:33:53;2.70;1.00
49855;DHT22;35752;52.164;21.244;2023-04-06T09:36:19;2.70;1.00
49855;DHT22;35752;52.164;21.244;2023-04-06T09:38:54;2.70;1.00
49855;DHT22;35752;52.164;21.244;2023-04-06T09:41:30;2.80;1.00
49855;DHT22;35752;52.164;21.244;2023-04-06T09:44:06;2.80;1.00
49855;DHT22;35752;52.164;21.244;2023-04-06T09:46:40;2.80;1.00
49855;DHT22;35752;52.164;21.244;2023-04-06T09:49:07;2.70;1.00
49855;DHT22;35752;52.164;21.244;2023-04-06T09:51:46;2.70;1.00
49855;DHT22;35752;52.164;21.244;2023-04-06T09:54:18;2.70;1.00
49855;DHT22;35752;52.164;21.244;2023-04-06T10:02:34;2.70;1.00
49855;DHT22;35752;52.164;21.244;2023-04-06T10:05:09;2.60;1.00
49855;DHT22;35752;52.164;21.244;2023-04-06T10:07:39;2.60;1.00
49855;DHT22;35752;52.164;21.244;2023-04-06T10:10:05;2.50;1.00
49855;DHT22;35752;52.164;21.244;2023-04-06T10:12:32;2.40;1.00
49855;DHT22;35752;52.164;21.244;2023-04-06T10:14:58;2.40;1.00
49855;DHT22;35752;52.164;21.244;2023-04-06T10:17:23;2.50;1.00
49855;DHT22;35752;52.164;21.244;2023-04-06T10:19:52;2.50;99.90
49855;DHT22;35752;52.164;21.244;2023-04-06T10:22:24;2.60;99.90
49855;DHT22;35752;52.164;21.244;2023-04-06T10:24:51;2.50;99.90
49855;DHT22;35752;52.164;21.244;2023-04-06T10:27:27;2.50;99.90
49855;DHT22;35752;52.164;21.244;2023-04-06T10:29:53;2.50;99.90
49855;DHT22;35752;52.164;21.244;2023-04-06T10:32:19;2.50;16.60
49855;DHT22;35752;52.164;21.244;2023-04-06T10:34:44;2.50;9.60
49855;DHT22;35752;52.164;21.244;2023-04-06T10:37:16;2.60;11.50
49855;DHT22;35752;52.164;21.244;2023-04-06T10:39:53;2.40;2.10
49855;DHT22;35752;52.164;21.244;2023-04-06T10:42:37;2.50;1.00
49855;DHT22;35752;52.164;21.244;2023-04-06T10:45:06;2.50;1.00
49855;DHT22;35752;52.164;21.244;2023-04-06T10:47:41;2.50;1.00
49855;DHT22;35752;52.164;21.244;2023-04-06T10:50:07;2.50;9.80
49855;DHT22;35752;52.164;21.244;2023-04-06T10:52:33;2.60;2.40
49855;DHT22;35752;52.164;21.244;2023-04-06T10:54:58;2.60;38.80
49855;DHT22;35752;52.164;21.244;2023-04-06T10:57:28;2.50;23.40
49855;DHT22;35752;52.164;21.244;2023-04-06T10:59:56;2.60;37.30
49855;DHT22;35752;52.164;21.244;2023-04-06T11:02:21;2.70;64.40
49855;DHT22;35752;52.164;21.244;2023-04-06T11:04:55;2.60;1.00
49855;DHT22;35752;52.164;21.244;2023-04-06T11:07:25;2.60;1.00
49855;DHT22;35752;52.164;21.244;2023-04-06T11:09:52;2.60;1.00
49855;DHT22;35752;52.164;21.244;2023-04-06T11:12:26;2.70;1.00
49855;DHT22;35752;52.164;21.244;2023-04-06T11:14:59;2.70;1.00
49855;DHT22;35752;52.164;21.244;2023-04-06T11:17:30;2.80;1.00
49855;DHT22;35752;52.164;21.244;2023-04-06T11:19:57;2.80;1.00
49855;DHT22;35752;52.164;21.244;2023-04-06T11:22:24;2.80;1.00
49855;DHT22;35752;52.164;21.244;2023-04-06T11:24:50;2.90;1.00
49855;DHT22;35752;52.164;21.244;2023-04-06T11:27:16;2.90;1.00
49855;DHT22;35752;52.164;21.244;2023-04-06T11:29:42;2.90;1.00
49855;DHT22;35752;52.164;21.244;2023-04-06T11:32:08;2.90;1.00
49855;DHT22;35752;52.164;21.244;2023-04-06T11:34:36;2.90;1.00
49855;DHT22;35752;52.164;21.244;2023-04-06T11:37:07;2.90;1.00
49855;DHT22;35752;52.164;21.244;2023-04-06T11:39:50;2.90;1.00
49855;DHT22;35752;52.164;21.244;2023-04-06T11:42:34;3.00;1.00
49855;DHT22;35752;52.164;21.244;2023-04-06T11:45:01;3.00;1.00
49855;DHT22;35752;52.164;21.244;2023-04-06T11:47:33;3.00;1.00
49855;DHT22;35752;52.164;21.244;2023-04-06T11:50:12;3.10;1.00
49855;DHT22;35752;52.164;21.244;2023-04-06T11:52:40;3.10;1.00
49855;DHT22;35752;52.164;21.244;2023-04-06T11:55:13;3.10;1.00
49855;DHT22;35752;52.164;21.244;2023-04-06T11:57:40;3.10;1.00
49855;DHT22;35752;52.164;21.244;2023-04-06T12:00:07;3.20;1.00
49855;DHT22;35752;52.164;21.244;2023-04-06T12:02:38;3.20;1.00
49855;DHT22;35752;52.164;21.244;2023-04-06T12:05:04;3.30;1.00
49855;DHT22;35752;52.164;21.244;2023-04-06T12:07:31;3.30;1.00
49855;DHT22;35752;52.164;21.244;2023-04-06T12:09:59;3.20;1.00
49855;DHT22;35752;52.164;21.244;2023-04-06T12:12:25;3.20;1.00
49855;DHT22;35752;52.164;21.244;2023-04-06T12:14:50;3.30;1.00
49855;DHT22;35752;52.164;21.244;2023-04-06T12:17:16;3.40;1.00
49855;DHT22;35752;52.164;21.244;2023-04-06T12:19:42;3.40;99.90
49855;DHT22;35752;52.164;21.244;2023-04-06T12:22:08;3.40;99.90
49855;DHT22;35752;52.164;21.244;2023-04-06T12:24:33;3.40;99.90
49855;DHT22;35752;52.164;21.244;2023-04-06T12:26:59;3.40;99.90
49855;DHT22;35752;52.164;21.244;2023-04-06T12:29:25;3.40;99.90
49855;DHT22;35752;52.164;21.244;2023-04-06T12:31:51;3.40;1.00
49855;DHT22;35752;52.164;21.244;2023-04-06T12:34:17;3.30;1.00
49855;DHT22;35752;52.164;21.244;2023-04-06T12:36:42;3.30;1.00
49855;DHT22;35752;52.164;21.244;2023-04-06T12:39:08;3.20;1.00
49855;DHT22;35752;52.164;21.244;2023-04-06T12:41:33;3.30;1.00
49855;DHT22;35752;52.164;21.244;2023-04-06T12:44:00;3.30;1.00
49855;DHT22;35752;52.164;21.244;2023-04-06T12:46:26;3.40;1.00
49855;DHT22;35752;52.164;21.244;2023-04-06T12:48:52;3.40;1.00
49855;DHT22;35752;52.164;21.244;2023-04-06T12:51:21;3.40;1.00
49855;DHT22;35752;52.164;21.244;2023-04-06T12:53:47;3.40;1.00
49855;DHT22;35752;52.164;21.244;2023-04-06T12:56:15;3.30;1.00
49855;DHT22;35752;52.164;21.244;2023-04-06T12:58:42;3.30;1.00
49855;DHT22;35752;52.164;21.244;2023-04-06T13:01:08;3.30;1.00
49855;DHT22;35752;52.164;21.244;2023-04-06T13:03:34;3.20;1.00
49855;DHT22;35752;52.164;21.244;2023-04-06T13:06:00;3.20;14.30
49855;DHT22;35752;52.164;21.244;2023-04-06T13:08:26;3.20;27.30
49855;DHT22;35752;52.164;21.244;2023-04-06T13:10:53;3.20;46.40
49855;DHT22;35752;52.164;21.244;2023-04-06T13:13:29;3.10;99.90
49855;DHT22;35752;52.164;21.244;2023-04-06T13:15:59;3.10;63.20
49855;DHT22;35752;52.164;21.244;2023-04-06T13:18:25;3.10;99.90
49855;DHT22;35752;52.164;21.244;2023-04-06T13:20:50;2.90;74.70
49855;DHT22;35752;52.164;21.244;2023-04-06T13:23:16;3.00;99.90
49855;DHT22;35752;52.164;21.244;2023-04-06T13:25:42;3.00;99.90
49855;DHT22;35752;52.164;21.244;2023-04-06T13:28:08;3.00;99.90
49855;DHT22;35752;52.164;21.244;2023-04-06T13:30:34;3.00;99.90
49855;DHT22;35752;52.164;21.244;2023-04-06T13:33:00;3.00;99.90
49855;DHT22;35752;52.164;21.244;2023-04-06T13:35:26;3.10;99.90
49855;DHT22;35752;52.164;21.244;2023-04-06T13:37:51;3.10;99.90
49855;DHT22;35752;52.164;21.244;2023-04-06T13:40:18;3.10;99.90
49855;DHT22;35752;52.164;21.244;2023-04-06T13:42:44;3.10;99.90
49855;DHT22;35752;52.164;21.244;2023-04-06T13:45:11;3.10;91.50
49855;DHT22;35752;52.164;21.244;2023-04-06T13:47:37;3.10;92.40
49855;DHT22;35752;52.164;21.244;2023-04-06T13:50:03;3.10;99.90
49855;DHT22;35752;52.164;21.244;2023-04-06T13:52:29;3.10;99.90
49855;DHT22;35752;52.164;21.244;2023-04-06T13:54:55;3.10;99.90
49855;DHT22;35752;52.164;21.244;2023-04-06T13:57:21;3.10;99.90
49855;DHT22;35752;52.164;21.244;2023-04-06T13:59:47;3.10;99.90
49855;DHT22;35752;52.164;21.244;2023-04-06T14:02:13;3.20;99.90
49855;DHT22;35752;52.164;21.244;2023-04-06T14:04:38;3.20;92.80
49855;DHT22;35752;52.164;21.244;2023-04-06T14:07:04;3.30;99.90
49855;DHT22;35752;52.164;21.244;2023-04-06T14:09:33;3.30;99.90
49855;DHT22;35752;52.164;21.244;2023-04-06T14:11:58;3.30;99.90
49855;DHT22;35752;52.164;21.244;2023-04-06T14:14:24;3.30;99.90
49855;DHT22;35752;52.164;21.244;2023-04-06T14:16:51;3.40;99.90
49855;DHT22;35752;52.164;21.244;2023-04-06T14:19:17;3.40;99.90
49855;DHT22;35752;52.164;21.244;2023-04-06T14:21:46;3.40;99.90
49855;DHT22;35752;52.164;21.244;2023-04-06T14:24:13;3.40;99.50
49855;DHT22;35752;52.164;21.244;2023-04-06T14:26:40;3.40;99.90
49855;DHT22;35752;52.164;21.244;2023-04-06T14:29:07;3.40;99.90
49855;DHT22;35752;52.164;21.244;2023-04-06T14:31:33;3.50;99.90
49855;DHT22;35752;52.164;21.244;2023-04-06T14:34:01;3.40;99.90
49855;DHT22;35752;52.164;21.244;2023-04-06T14:36:26;3.40;99.90
49855;DHT22;35752;52.164;21.244;2023-04-06T14:38:56;3.40;99.90
49855;DHT22;35752;52.164;21.244;2023-04-06T14:41:23;3.30;99.90
49855;DHT22;35752;52.164;21.244;2023-04-06T14:43:49;3.30;99.90
49855;DHT22;35752;52.164;21.244;2023-04-06T14:46:15;3.30;99.90
49855;DHT22;35752;52.164;21.244;2023-04-06T14:48:43;3.30;99.90
49855;DHT22;35752;52.164;21.244;2023-04-06T14:51:09;3.30;99.90
49855;DHT22;35752;52.164;21.244;2023-04-06T14:53:35;3.40;99.90
49855;DHT22;35752;52.164;21.244;2023-04-06T14:56:00;3.30;99.90
49855;DHT22;35752;52.164;21.244;2023-04-06T14:58:26;3.40;99.90
49855;DHT22;35752;52.164;21.244;2023-04-06T15:00:56;3.40;99.90
49855;DHT22;35752;52.164;21.244;2023-04-06T15:03:23;3.40;99.90
49855;DHT22;35752;52.164;21.244;2023-04-06T15:05:51;3.40;99.90
49855;DHT22;35752;52.164;21.244;2023-04-06T15:08:17;3.30;99.90
49855;DHT22;35752;52.164;21.244;2023-04-06T15:10:49;3.30;99.90
49855;DHT22;35752;52.164;21.244;2023-04-06T15:13:15;3.30;99.90
49855;DHT22;35752;52.164;21.244;2023-04-06T15:15:41;3.30;99.90
49855;DHT22;35752;52.164;21.244;2023-04-06T15:18:07;3.20;99.90
49855;DHT22;35752;52.164;21.244;2023-04-06T15:20:33;3.30;99.90
49855;DHT22;35752;52.164;21.244;2023-04-06T15:23:00;3.30;99.90
49855;DHT22;35752;52.164;21.244;2023-04-06T15:25:26;3.20;99.90
49855;DHT22;35752;52.164;21.244;2023-04-06T15:27:51;3.20;99.90
49855;DHT22;35752;52.164;21.244;2023-04-06T15:30:17;3.20;99.90
49855;DHT22;35752;52.164;21.244;2023-04-06T15:32:53;3.20;99.90
49855;DHT22;35752;52.164;21.244;2023-04-06T15:35:20;3.20;99.90
49855;DHT22;35752;52.164;21.244;2023-04-06T15:37:45;3.30;99.90